Weather at Glock Heliport

Public forecast

Using degrees Celsius for public forecast. Weather courtesy of forecast.io.

Closest aviation weather report (METAR) to Glock Heliport

Closest report is Klagenfurt Airport, 7.4 nm (13.7 km) NNE.

2024/05/21 13:50 (retrieved 18 minutes ago)

LOWK 211350Z AUTO VRB02KT 9999 -SHRA FEW005 BKN028 17/15 Q1006 RESHRA TEMPO 2500 +SHRA BKN012

Closest aviation forecast (TAF) to Glock Heliport

Closest forecast is Klagenfurt Airport, 7.4 nm (13.7 km) NNE.

2024/05/21 12:21 (retrieved 2 hours ago)

TAF LOWK 211115Z 2112/2212 VRB04KT 9999 FEW012 BKN020 TX19/2211Z TN13/2203Z TEMPO 2112/2116 11015G25KT 2000 +TSRA BKN008 FEW020CB TEMPO 2116/2206 SHRA BKN014 FEW020CB PROB40 TEMPO 2200/2204 4000 TSRA BKN012 FEW020CB TEMPO 2209/2212 SHRA